Time,TemperatureF,DewpointF,PressureIn,WindDirection,WindDirectionDegrees,WindSpeedMPH,WindSpeedGustMPH,Humidity,HourlyPrecipIn,Conditions,Clouds,dailyrainin,SoftwareType,DateUTC
2013-01-21 00:00:00,-11.9,-18.5,30.65,WNW,290,12.0,21.0,72,0.00,,,0.00,VWS V14.01,2013-01-21 06:00:00,
2013-01-21 00:02:00,-11.9,-18.5,30.65,West,277,12.0,21.0,72,0.00,,,0.00,VWS V14.01,2013-01-21 06:02:00,
2013-01-21 00:07:00,-11.9,-18.5,30.65,NW,304,9.0,21.0,72,0.00,,,0.00,VWS V14.01,2013-01-21 06:07:00,
2013-01-21 00:12:00,-12.0,-18.5,30.65,WNW,298,6.0,18.0,72,0.00,,,0.00,VWS V14.01,2013-01-21 06:12:00,
2013-01-21 00:15:00,-11.9,-18.5,30.65,WNW,300,11.0,21.0,72,0.00,,,0.00,VWS V14.01,2013-01-21 06:15:00,
2013-01-21 00:17:00,-12.0,-18.5,30.65,WNW,294,14.0,20.0,72,0.00,,,0.00,VWS V14.01,2013-01-21 06:17:00,
2013-01-21 00:23:00,-12.0,-18.5,30.65,WNW,293,13.0,20.0,72,0.00,,,0.00,VWS V14.01,2013-01-21 06:23:00,
2013-01-21 00:28:00,-11.8,-18.4,30.65,WNW,292,23.0,23.0,72,0.00,,,0.00,VWS V14.01,2013-01-21 06:28:00,
2013-01-21 00:30:00,-11.9,-18.5,30.65,WNW,294,8.0,20.0,72,0.00,,,0.00,VWS V14.01,2013-01-21 06:30:00,
2013-01-21 00:33:00,-11.8,-18.4,30.65,WNW,298,16.0,23.0,72,0.00,,,0.00,VWS V14.01,2013-01-21 06:33:00,
2013-01-21 00:37:00,-11.8,-18.4,30.65,NW,314,17.0,23.0,72,0.00,,,0.00,VWS V14.01,2013-01-21 06:37:00,
2013-01-21 00:43:00,-11.8,-18.4,30.65,WNW,298,17.0,24.0,72,0.00,,,0.00,VWS V14.01,2013-01-21 06:43:00,
2013-01-21 00:45:00,-11.8,-18.4,30.64,NW,311,19.0,23.0,72,0.00,,,0.00,VWS V14.01,2013-01-21 06:45:00,
2013-01-21 00:47:00,-11.9,-18.5,30.65,West,281,7.0,25.0,72,0.00,,,0.00,VWS V14.01,2013-01-21 06:47:00,
2013-01-21 00:52:00,-12.1,-18.6,30.64,WNW,283,6.0,25.0,72,0.00,,,0.00,VWS V14.01,2013-01-21 06:52:00,
2013-01-21 00:57:00,-12.2,-18.7,30.64,WNW,285,15.0,21.0,72,0.00,,,0.00,VWS V14.01,2013-01-21 06:57:00,
2013-01-21 01:00:00,-12.1,-18.6,30.64,WNW,300,11.0,25.0,72,0.00,,,0.00,VWS V14.01,2013-01-21 07:00:00,
2013-01-21 01:02:00,-12.2,-18.7,30.64,WNW,294,20.0,22.0,72,0.00,,,0.00,VWS V14.01,2013-01-21 07:02:00,
2013-01-21 01:08:00,-12.2,-18.7,30.64,WNW,292,9.0,22.0,72,0.00,,,0.00,VWS V14.01,2013-01-21 07:08:00,
2013-01-21 01:13:00,-12.3,-18.8,30.64,WNW,289,11.0,17.0,72,0.00,,,0.00,VWS V14.01,2013-01-21 07:13:00,
2013-01-21 01:15:00,-12.3,-18.8,30.64,WNW,294,10.0,22.0,72,0.00,,,0.00,VWS V14.01,2013-01-21 07:15:00,
2013-01-21 01:18:00,-12.4,-18.9,30.64,WNW,294,9.0,17.0,72,0.00,,,0.00,VWS V14.01,2013-01-21 07:18:00,
2013-01-21 01:23:00,-12.4,-18.9,30.65,WNW,296,10.0,19.0,72,0.00,,,0.00,VWS V14.01,2013-01-21 07:23:00,
2013-01-21 01:28:00,-12.4,-18.9,30.65,West,281,8.0,10.0,72,0.00,,,0.00,VWS V14.01,2013-01-21 07:28:00,
2013-01-21 01:30:00,-12.4,-18.9,30.64,NW,306,10.0,19.0,72,0.00,,,0.00,VWS V14.01,2013-01-21 07:30:00,
2013-01-21 01:33:00,-12.4,-18.7,30.65,WNW,290,14.0,20.0,73,0.00,,,0.00,VWS V14.01,2013-01-21 07:33:00,
2013-01-21 01:38:00,-12.4,-18.9,30.64,WNW,298,13.0,20.0,72,0.00,,,0.00,VWS V14.01,2013-01-21 07:38:00,
2013-01-21 01:43:00,-12.4,-18.9,30.64,NW,311,16.0,19.0,72,0.00,,,0.00,VWS V14.01,2013-01-21 07:43:00,
2013-01-21 01:45:00,-12.4,-18.9,30.64,NW,306,12.0,20.0,72,0.00,,,0.00,VWS V14.01,2013-01-21 07:45:00,
2013-01-21 01:48:00,-12.4,-18.9,30.64,NW,310,16.0,19.0,72,0.00,,,0.00,VWS V14.01,2013-01-21 07:48:00,
2013-01-21 01:53:00,-12.4,-18.9,30.64,NW,317,9.0,22.0,72,0.00,,,0.00,VWS V14.01,2013-01-21 07:53:00,
2013-01-21 01:58:00,-12.4,-18.7,30.64,NW,309,12.0,17.0,73,0.00,,,0.00,VWS V14.01,2013-01-21 07:58:00,
2013-01-21 02:00:00,-12.4,-18.9,30.64,NW,315,12.0,22.0,72,0.00,,,0.00,VWS V14.01,2013-01-21 08:00:00,
2013-01-21 02:03:00,-12.4,-18.7,30.64,NW,309,15.0,18.0,73,0.00,,,0.00,VWS V14.01,2013-01-21 08:03:00,
2013-01-21 02:08:00,-12.4,-18.7,30.65,NW,306,12.0,18.0,73,0.00,,,0.00,VWS V14.01,2013-01-21 08:08:00,
2013-01-21 02:13:00,-12.5,-18.8,30.65,NW,325,9.0,15.0,73,0.00,,,0.00,VWS V14.01,2013-01-21 08:13:00,
2013-01-21 02:15:00,-12.5,-18.8,30.64,WNW,295,13.0,18.0,73,0.00,,,0.00,VWS V14.01,2013-01-21 08:15:00,
2013-01-21 02:18:00,-12.5,-18.8,30.65,NW,306,14.0,15.0,73,0.00,,,0.00,VWS V14.01,2013-01-21 08:18:00,
2013-01-21 02:23:00,-12.5,-18.8,30.64,WNW,287,6.0,15.0,73,0.00,,,0.00,VWS V14.01,2013-01-21 08:23:00,
2013-01-21 02:28:00,-12.4,-18.7,30.65,West,273,6.0,15.0,73,0.00,,,0.00,VWS V14.01,2013-01-21 08:28:00,
2013-01-21 02:30:00,-12.5,-18.8,30.64,WNW,296,12.0,15.0,73,0.00,,,0.00,VWS V14.01,2013-01-21 08:30:00,
2013-01-21 02:33:00,-12.6,-18.9,30.65,WNW,290,6.0,15.0,73,0.00,,,0.00,VWS V14.01,2013-01-21 08:33:00,
2013-01-21 02:38:00,-12.7,-19.0,30.65,NW,311,10.0,15.0,73,0.00,,,0.00,VWS V14.01,2013-01-21 08:38:00,
2013-01-21 02:43:00,-12.7,-19.0,30.64,West,281,5.0,11.0,73,0.00,,,0.00,VWS V14.01,2013-01-21 08:43:00,
2013-01-21 02:45:00,-12.7,-19.0,30.64,WNW,294,7.0,15.0,73,0.00,,,0.00,VWS V14.01,2013-01-21 08:45:00,
2013-01-21 02:48:00,-12.7,-19.0,30.64,WNW,285,5.0,12.0,73,0.00,,,0.00,VWS V14.01,2013-01-21 08:48:00,
2013-01-21 02:53:00,-12.7,-19.0,30.64,West,275,7.0,12.0,73,0.00,,,0.00,VWS V14.01,2013-01-21 08:53:00,
2013-01-21 02:58:00,-12.7,-19.0,30.65,WNW,291,5.0,13.0,73,0.00,,,0.00,VWS V14.01,2013-01-21 08:58:00,
2013-01-21 03:00:00,-12.7,-19.0,30.64,WNW,297,5.0,12.0,73,0.00,,,0.00,VWS V14.01,2013-01-21 09:00:00,
2013-01-21 03:03:00,-12.9,-19.1,30.65,WNW,294,10.0,14.0,73,0.00,,,0.00,VWS V14.01,2013-01-21 09:03:00,
2013-01-21 03:08:00,-12.9,-19.1,30.65,WNW,286,6.0,14.0,73,0.00,,,0.00,VWS V14.01,2013-01-21 09:08:00,
2013-01-21 03:13:00,-12.9,-19.1,30.65,WNW,298,6.0,12.0,73,0.00,,,0.00,VWS V14.01,2013-01-21 09:13:00,
2013-01-21 03:15:00,-12.9,-19.1,30.65,WNW,301,6.0,14.0,73,0.00,,,0.00,VWS V14.01,2013-01-21 09:15:00,
2013-01-21 03:18:00,-12.9,-19.1,30.64,NW,304,9.0,13.0,73,0.00,,,0.00,VWS V14.01,2013-01-21 09:18:00,
2013-01-21 03:23:00,-12.9,-19.1,30.65,WNW,292,10.0,18.0,73,0.00,,,0.00,VWS V14.01,2013-01-21 09:23:00,
2013-01-21 03:28:00,-12.8,-19.0,30.64,WNW,284,6.0,15.0,73,0.00,,,0.00,VWS V14.01,2013-01-21 09:28:00,
2013-01-21 03:30:00,-12.9,-19.1,30.64,WNW,291,11.0,18.0,73,0.00,,,0.00,VWS V14.01,2013-01-21 09:30:00,
2013-01-21 03:33:00,-12.8,-19.0,30.64,WNW,298,8.0,16.0,73,0.00,,,0.00,VWS V14.01,2013-01-21 09:33:00,
2013-01-21 03:38:00,-12.8,-19.0,30.64,WNW,302,7.0,16.0,73,0.00,,,0.00,VWS V14.01,2013-01-21 09:38:00,
2013-01-21 03:43:00,-12.8,-19.0,30.64,WNW,302,8.0,16.0,73,0.00,,,0.00,VWS V14.01,2013-01-21 09:43:00,
2013-01-21 03:45:00,-12.8,-19.0,30.64,NW,307,9.0,16.0,73,0.00,,,0.00,VWS V14.01,2013-01-21 09:45:00,
2013-01-21 03:48:00,-12.7,-19.0,30.64,WNW,289,5.0,16.0,73,0.00,,,0.00,VWS V14.01,2013-01-21 09:48:00,
2013-01-21 03:53:00,-12.7,-19.0,30.63,WNW,283,11.0,16.0,73,0.00,,,0.00,VWS V14.01,2013-01-21 09:53:00,
2013-01-21 03:58:00,-12.8,-19.0,30.63,NW,313,17.0,17.0,73,0.00,,,0.00,VWS V14.01,2013-01-21 09:58:00,
2013-01-21 04:00:00,-12.7,-19.0,30.64,WNW,284,7.0,16.0,73,0.00,,,0.00,VWS V14.01,2013-01-21 10:00:00,
2013-01-21 04:03:00,-12.8,-19.0,30.63,West,280,13.0,17.0,73,0.00,,,0.00,VWS V14.01,2013-01-21 10:03:00,
2013-01-21 04:08:00,-12.9,-19.1,30.63,West,281,6.0,17.0,73,0.00,,,0.00,VWS V14.01,2013-01-21 10:08:00,
2013-01-21 04:13:00,-13.0,-19.2,30.63,WNW,291,16.0,17.0,73,0.00,,,0.00,VWS V14.01,2013-01-21 10:13:00,
2013-01-21 04:15:00,-12.9,-19.1,30.63,WNW,292,8.0,17.0,73,0.00,,,0.00,VWS V14.01,2013-01-21 10:15:00,
2013-01-21 04:18:00,-13.1,-19.3,30.63,WNW,286,7.0,17.0,73,0.00,,,0.00,VWS V14.01,2013-01-21 10:18:00,
2013-01-21 04:23:00,-13.3,-19.3,30.63,NW,309,11.0,17.0,74,0.00,,,0.00,VWS V14.01,2013-01-21 10:23:00,
2013-01-21 04:28:00,-13.4,-19.4,30.63,NW,304,5.0,10.0,74,0.00,,,0.00,VWS V14.01,2013-01-21 10:28:00,
2013-01-21 04:30:00,-13.3,-19.3,30.63,NW,304,6.0,17.0,74,0.00,,,0.00,VWS V14.01,2013-01-21 10:30:00,
2013-01-21 04:33:00,-13.4,-19.4,30.63,WNW,298,6.0,12.0,74,0.00,,,0.00,VWS V14.01,2013-01-21 10:33:00,
2013-01-21 04:38:00,-13.3,-19.3,30.63,NW,316,8.0,12.0,74,0.00,,,0.00,VWS V14.01,2013-01-21 10:38:00,
2013-01-21 04:43:00,-13.2,-19.2,30.63,WNW,284,9.0,14.0,74,0.00,,,0.00,VWS V14.01,2013-01-21 10:43:00,
2013-01-21 04:45:00,-13.3,-19.3,30.63,NW,316,8.0,12.0,74,0.00,,,0.00,VWS V14.01,2013-01-21 10:45:00,
2013-01-21 04:48:00,-13.2,-19.2,30.62,NW,312,8.0,14.0,74,0.00,,,0.00,VWS V14.01,2013-01-21 10:48:00,
2013-01-21 04:53:00,-13.2,-19.2,30.63,WNW,299,6.0,14.0,74,0.00,,,0.00,VWS V14.01,2013-01-21 10:53:00,
2013-01-21 04:58:00,-13.1,-19.1,30.63,WNW,303,9.0,14.0,74,0.00,,,0.00,VWS V14.01,2013-01-21 10:58:00,
2013-01-21 05:00:00,-13.1,-19.1,30.63,WNW,283,12.0,14.0,74,0.00,,,0.00,VWS V14.01,2013-01-21 11:00:00,
2013-01-21 05:03:00,-13.1,-19.1,30.63,West,281,4.0,14.0,74,0.00,,,0.00,VWS V14.01,2013-01-21 11:03:00,
2013-01-21 05:08:00,-13.0,-19.0,30.63,WNW,298,9.0,14.0,74,0.00,,,0.00,VWS V14.01,2013-01-21 11:08:00,
2013-01-21 05:13:00,-13.0,-19.0,30.63,WNW,288,7.0,10.0,74,0.00,,,0.00,VWS V14.01,2013-01-21 11:13:00,
2013-01-21 05:15:00,-13.0,-19.0,30.63,West,281,8.0,14.0,74,0.00,,,0.00,VWS V14.01,2013-01-21 11:15:00,
2013-01-21 05:18:00,-13.0,-19.0,30.63,West,280,8.0,13.0,74,0.00,,,0.00,VWS V14.01,2013-01-21 11:18:00,
2013-01-21 05:23:00,-13.1,-19.1,30.63,WNW,290,8.0,14.0,74,0.00,,,0.00,VWS V14.01,2013-01-21 11:23:00,
2013-01-21 05:28:00,-13.0,-19.0,30.62,WNW,294,10.0,21.0,74,0.00,,,0.00,VWS V14.01,2013-01-21 11:28:00,
2013-01-21 05:30:00,-13.1,-19.1,30.63,WNW,300,8.0,14.0,74,0.00,,,0.00,VWS V14.01,2013-01-21 11:30:00,
2013-01-21 05:33:00,-12.9,-18.9,30.62,West,277,6.0,21.0,74,0.00,,,0.00,VWS V14.01,2013-01-21 11:33:00,
2013-01-21 05:38:00,-12.9,-18.9,30.62,WNW,296,11.0,21.0,74,0.00,,,0.00,VWS V14.01,2013-01-21 11:38:00,
2013-01-21 05:43:00,-12.9,-19.1,30.62,WNW,289,8.0,11.0,73,0.00,,,0.00,VWS V14.01,2013-01-21 11:43:00,
2013-01-21 05:45:00,-12.9,-18.9,30.62,WNW,296,11.0,21.0,74,0.00,,,0.00,VWS V14.01,2013-01-21 11:45:00,
2013-01-21 05:48:00,-12.8,-19.0,30.62,WNW,285,16.0,16.0,73,0.00,,,0.00,VWS V14.01,2013-01-21 11:48:00,
2013-01-21 05:53:00,-12.8,-19.0,30.62,West,264,7.0,16.0,73,0.00,,,0.00,VWS V14.01,2013-01-21 11:53:00,
2013-01-21 05:58:00,-12.7,-19.0,30.62,West,267,9.0,14.0,73,0.00,,,0.00,VWS V14.01,2013-01-21 11:58:00,
2013-01-21 06:00:00,-12.7,-19.0,30.62,West,271,10.0,16.0,73,0.00,,,0.00,VWS V14.01,2013-01-21 12:00:00,
2013-01-21 06:03:00,-12.7,-19.0,30.62,WNW,302,7.0,16.0,73,0.00,,,0.00,VWS V14.01,2013-01-21 12:03:00,
2013-01-21 06:08:00,-12.9,-19.1,30.62,WNW,289,4.0,16.0,73,0.00,,,0.00,VWS V14.01,2013-01-21 12:08:00,
2013-01-21 06:13:00,-13.0,-19.0,30.62,NW,307,9.0,11.0,74,0.00,,,0.00,VWS V14.01,2013-01-21 12:13:00,
2013-01-21 06:15:00,-12.9,-19.1,30.62,WNW,296,10.0,16.0,73,0.00,,,0.00,VWS V14.01,2013-01-21 12:15:00,
2013-01-21 06:18:00,-13.1,-19.1,30.62,West,267,7.0,12.0,74,0.00,,,0.00,VWS V14.01,2013-01-21 12:18:00,
2013-01-21 06:23:00,-13.0,-19.0,30.62,WNW,288,8.0,14.0,74,0.00,,,0.00,VWS V14.01,2013-01-21 12:23:00,
2013-01-21 06:28:00,-13.0,-19.0,30.62,WNW,286,4.0,15.0,74,0.00,,,0.00,VWS V14.01,2013-01-21 12:28:00,
2013-01-21 06:30:00,-13.1,-19.1,30.62,West,280,10.0,14.0,74,0.00,,,0.00,VWS V14.01,2013-01-21 12:30:00,
2013-01-21 06:33:00,-13.0,-19.0,30.62,WNW,292,7.0,15.0,74,0.00,,,0.00,VWS V14.01,2013-01-21 12:33:00,
2013-01-21 06:38:00,-13.0,-19.0,30.62,WNW,298,8.0,15.0,74,0.00,,,0.00,VWS V14.01,2013-01-21 12:38:00,
2013-01-21 06:43:00,-13.0,-19.0,30.62,West,277,8.0,14.0,74,0.00,,,0.00,VWS V14.01,2013-01-21 12:43:00,
2013-01-21 06:45:00,-13.0,-19.0,30.62,West,278,6.0,15.0,74,0.00,,,0.00,VWS V14.01,2013-01-21 12:45:00,
2013-01-21 06:48:00,-13.0,-19.0,30.62,West,278,6.0,14.0,74,0.00,,,0.00,VWS V14.01,2013-01-21 12:48:00,
2013-01-21 06:53:00,-13.0,-19.0,30.62,WNW,292,10.0,14.0,74,0.00,,,0.00,VWS V14.01,2013-01-21 12:53:00,
2013-01-21 06:58:00,-12.9,-18.9,30.62,West,277,7.0,13.0,74,0.00,,,0.00,VWS V14.01,2013-01-21 12:58:00,
2013-01-21 07:00:00,-12.9,-18.9,30.62,West,274,13.0,15.0,74,0.00,,,0.00,VWS V14.01,2013-01-21 13:00:00,
2013-01-21 07:03:00,-12.9,-18.9,30.62,WNW,296,7.0,16.0,74,0.00,,,0.00,VWS V14.01,2013-01-21 13:03:00,
2013-01-21 07:08:00,-13.0,-19.0,30.62,WNW,283,8.0,16.0,74,0.00,,,0.00,VWS V14.01,2013-01-21 13:08:00,
2013-01-21 07:13:00,-12.9,-18.9,30.62,West,270,6.0,10.0,74,0.00,,,0.00,VWS V14.01,2013-01-21 13:13:00,
2013-01-21 07:15:00,-12.9,-18.9,30.62,WNW,286,6.0,16.0,74,0.00,,,0.00,VWS V14.01,2013-01-21 13:15:00,
2013-01-21 07:18:00,-12.8,-18.8,30.62,WNW,287,6.0,13.0,74,0.00,,,0.00,VWS V14.01,2013-01-21 13:18:00,
2013-01-21 07:23:00,-12.8,-18.8,30.62,West,259,9.0,14.0,74,0.00,,,0.00,VWS V14.01,2013-01-21 13:23:00,
2013-01-21 07:28:00,-12.6,-18.6,30.62,WNW,290,9.0,12.0,74,0.00,,,0.00,VWS V14.01,2013-01-21 13:28:00,
2013-01-21 07:30:00,-12.7,-18.7,30.62,West,271,10.0,18.0,74,0.00,,,0.00,VWS V14.01,2013-01-21 13:30:00,
2013-01-21 07:33:00,-12.6,-18.6,30.63,West,273,5.0,14.0,74,0.00,,,0.00,VWS V14.01,2013-01-21 13:33:00,
2013-01-21 07:38:00,-12.6,-18.6,30.63,West,274,9.0,14.0,74,0.00,,,0.00,VWS V14.01,2013-01-21 13:38:00,
2013-01-21 07:43:00,-12.5,-18.5,30.63,West,270,5.0,13.0,74,0.00,,,0.00,VWS V14.01,2013-01-21 13:43:00,
2013-01-21 07:45:00,-12.6,-18.6,30.63,West,263,7.0,14.0,74,0.00,,,0.00,VWS V14.01,2013-01-21 13:45:00,
2013-01-21 07:48:00,-12.4,-18.4,30.63,WNW,286,5.0,13.0,74,0.00,,,0.00,VWS V14.01,2013-01-21 13:48:00,
2013-01-21 07:53:00,-12.3,-18.0,30.63,West,279,6.0,13.0,75,0.00,,,0.00,VWS V14.01,2013-01-21 13:53:00,
2013-01-21 07:58:00,-12.2,-18.0,30.63,West,275,5.0,13.0,75,0.00,,,0.00,VWS V14.01,2013-01-21 13:58:00,
2013-01-21 08:00:00,-12.2,-18.0,30.63,West,275,4.0,13.0,75,0.00,,,0.00,VWS V14.01,2013-01-21 14:00:00,
2013-01-21 08:03:00,-12.2,-18.2,30.63,West,271,8.0,13.0,74,0.00,,,0.00,VWS V14.01,2013-01-21 14:03:00,
2013-01-21 08:07:00,-12.3,-18.0,30.63,West,262,8.0,13.0,75,0.00,,,0.00,VWS V14.01,2013-01-21 14:07:00,
2013-01-21 08:12:00,-11.9,-17.7,30.62,West,269,6.0,14.0,75,0.00,,,0.00,VWS V14.01,2013-01-21 14:12:00,
2013-01-21 08:15:00,-12.1,-17.9,30.63,West,263,4.0,13.0,75,0.00,,,0.00,VWS V14.01,2013-01-21 14:15:00,
2013-01-21 08:17:00,-11.9,-17.7,30.62,West,269,6.0,14.0,75,0.00,,,0.00,VWS V14.01,2013-01-21 14:17:00,
2013-01-21 08:22:00,-11.9,-17.7,30.62,West,279,5.0,14.0,75,0.00,,,0.00,VWS V14.01,2013-01-21 14:22:00,
2013-01-21 08:27:00,-11.9,-17.7,30.62,West,275,5.0,15.0,75,0.00,,,0.00,VWS V14.01,2013-01-21 14:27:00,
2013-01-21 08:30:00,-11.9,-17.7,30.62,WNW,285,6.0,14.0,75,0.00,,,0.00,VWS V14.01,2013-01-21 14:30:00,
2013-01-21 08:32:00,-11.7,-17.5,30.62,WNW,285,4.0,15.0,75,0.00,,,0.00,VWS V14.01,2013-01-21 14:32:00,
2013-01-21 08:37:00,-11.6,-17.4,30.63,WNW,284,10.0,15.0,75,0.00,,,0.00,VWS V14.01,2013-01-21 14:37:00,
2013-01-21 08:42:00,-11.5,-17.3,30.62,WNW,283,9.0,12.0,75,0.00,,,0.00,VWS V14.01,2013-01-21 14:42:00,
2013-01-21 08:45:00,-11.6,-17.4,30.62,West,277,9.0,15.0,75,0.00,,,0.00,VWS V14.01,2013-01-21 14:45:00,
2013-01-21 08:47:00,-11.4,-17.2,30.62,WNW,290,7.0,12.0,75,0.00,,,0.00,VWS V14.01,2013-01-21 14:47:00,
2013-01-21 08:52:00,-11.4,-17.2,30.62,West,276,4.0,12.0,75,0.00,,,0.00,VWS V14.01,2013-01-21 14:52:00,
2013-01-21 08:57:00,-11.3,-17.1,30.63,West,263,6.0,12.0,75,0.00,,,0.00,VWS V14.01,2013-01-21 14:57:00,
2013-01-21 09:00:00,-11.4,-17.2,30.62,West,271,5.0,12.0,75,0.00,,,0.00,VWS V14.01,2013-01-21 15:00:00,
2013-01-21 09:02:00,-11.2,-17.0,30.63,West,260,7.0,12.0,75,0.00,,,0.00,VWS V14.01,2013-01-21 15:02:00,
2013-01-21 09:07:00,-10.9,-16.7,30.63,West,273,11.0,15.0,75,0.00,,,0.00,VWS V14.01,2013-01-21 15:07:00,
2013-01-21 09:12:00,-10.8,-16.9,30.63,WNW,292,7.0,12.0,74,0.00,,,0.00,VWS V14.01,2013-01-21 15:12:00,
2013-01-21 09:15:00,-10.9,-16.7,30.63,West,269,6.0,15.0,75,0.00,,,0.00,VWS V14.01,2013-01-21 15:15:00,
2013-01-21 09:17:00,-10.7,-16.8,30.63,West,278,7.0,13.0,74,0.00,,,0.00,VWS V14.01,2013-01-21 15:17:00,
2013-01-21 09:22:00,-10.7,-16.8,30.63,West,278,7.0,13.0,74,0.00,,,0.00,VWS V14.01,2013-01-21 15:22:00,
2013-01-21 09:27:00,-10.1,-16.2,30.63,West,281,9.0,17.0,74,0.00,,,0.00,VWS V14.01,2013-01-21 15:27:00,
2013-01-21 09:30:00,-10.3,-16.4,30.63,WNW,291,4.0,14.0,74,0.00,,,0.00,VWS V14.01,2013-01-21 15:30:00,
2013-01-21 09:32:00,-9.9,-16.0,30.63,WNW,291,12.0,17.0,74,0.00,,,0.00,VWS V14.01,2013-01-21 15:32:00,
2013-01-21 09:37:00,-9.5,-15.6,30.63,WNW,283,15.0,20.0,74,0.00,,,0.00,VWS V14.01,2013-01-21 15:37:00,
2013-01-21 09:42:00,-9.3,-15.7,30.63,WNW,298,12.0,17.0,73,0.00,,,0.00,VWS V14.01,2013-01-21 15:42:00,
2013-01-21 09:45:00,-9.4,-15.5,30.63,West,281,10.0,20.0,74,0.00,,,0.00,VWS V14.01,2013-01-21 15:45:00,
2013-01-21 09:47:00,-9.1,-15.5,30.63,WNW,290,7.0,18.0,73,0.00,,,0.00,VWS V14.01,2013-01-21 15:47:00,
2013-01-21 09:52:00,-8.8,-15.2,30.63,WNW,285,9.0,19.0,73,0.00,,,0.00,VWS V14.01,2013-01-21 15:52:00,
2013-01-21 09:57:00,-8.6,-15.0,30.63,NW,323,12.0,19.0,73,0.00,,,0.00,VWS V14.01,2013-01-21 15:57:00,
2013-01-21 10:00:00,-8.8,-15.2,30.63,WNW,300,11.0,19.0,73,0.00,,,0.00,VWS V14.01,2013-01-21 16:00:00,
2013-01-21 10:02:00,-8.4,-14.8,30.63,NW,306,15.0,19.0,73,0.00,,,0.00,VWS V14.01,2013-01-21 16:02:00,
2013-01-21 10:07:00,-8.1,-14.8,30.63,NW,308,13.0,19.0,72,0.00,,,0.00,VWS V14.01,2013-01-21 16:07:00,
2013-01-21 10:12:00,-7.9,-14.6,30.63,WNW,291,10.0,17.0,72,0.00,,,0.00,VWS V14.01,2013-01-21 16:12:00,
2013-01-21 10:15:00,-8.1,-14.8,30.63,West,267,8.0,19.0,72,0.00,,,0.00,VWS V14.01,2013-01-21 16:15:00,
2013-01-21 10:17:00,-7.7,-14.4,30.63,WNW,290,11.0,18.0,72,0.00,,,0.00,VWS V14.01,2013-01-21 16:17:00,
2013-01-21 10:22:00,-7.5,-14.2,30.63,WNW,300,13.0,18.0,72,0.00,,,0.00,VWS V14.01,2013-01-21 16:22:00,
2013-01-21 10:27:00,-7.4,-14.1,30.63,NW,304,16.0,16.0,72,0.00,,,0.00,VWS V14.01,2013-01-21 16:27:00,
2013-01-21 10:30:00,-7.5,-14.2,30.63,WNW,302,9.0,20.0,72,0.00,,,0.00,VWS V14.01,2013-01-21 16:30:00,
2013-01-21 10:32:00,-7.2,-13.9,30.64,WNW,299,13.0,17.0,72,0.00,,,0.00,VWS V14.01,2013-01-21 16:32:00,
2013-01-21 10:37:00,-7.1,-14.1,30.64,NW,308,12.0,17.0,71,0.00,,,0.00,VWS V14.01,2013-01-21 16:37:00,
2013-01-21 10:42:00,-6.9,-13.9,30.64,WNW,297,11.0,17.0,71,0.00,,,0.00,VWS V14.01,2013-01-21 16:42:00,
2013-01-21 10:45:00,-7.0,-14.0,30.64,WNW,300,8.0,17.0,71,0.00,,,0.00,VWS V14.01,2013-01-21 16:45:00,
2013-01-21 10:47:00,-6.9,-13.9,30.64,NW,321,16.0,20.0,71,0.00,,,0.00,VWS V14.01,2013-01-21 16:47:00,
2013-01-21 10:52:00,-6.7,-13.7,30.64,WNW,296,11.0,20.0,71,0.00,,,0.00,VWS V14.01,2013-01-21 16:52:00,
2013-01-21 10:57:00,-6.6,-13.6,30.64,WNW,289,7.0,15.0,71,0.00,,,0.00,VWS V14.01,2013-01-21 16:57:00,
2013-01-21 11:00:00,-6.7,-13.7,30.64,WNW,296,11.0,20.0,71,0.00,,,0.00,VWS V14.01,2013-01-21 17:00:00,
2013-01-21 11:02:00,-6.3,-13.3,30.64,West,271,6.0,17.0,71,0.00,,,0.00,VWS V14.01,2013-01-21 17:02:00,
2013-01-21 11:07:00,-6.1,-13.1,30.64,WNW,298,8.0,17.0,71,0.00,,,0.00,VWS V14.01,2013-01-21 17:07:00,
2013-01-21 11:12:00,-6.0,-13.0,30.64,WNW,288,7.0,20.0,71,0.00,,,0.00,VWS V14.01,2013-01-21 17:12:00,
2013-01-21 11:15:00,-6.0,-13.0,30.64,NW,311,15.0,17.0,71,0.00,,,0.00,VWS V14.01,2013-01-21 17:15:00,
2013-01-21 11:17:00,-5.8,-12.8,30.64,West,274,10.0,20.0,71,0.00,,,0.00,VWS V14.01,2013-01-21 17:17:00,
2013-01-21 11:22:00,-5.6,-12.9,30.64,WNW,296,6.0,20.0,70,0.00,,,0.00,VWS V14.01,2013-01-21 17:22:00,
2013-01-21 11:27:00,-5.3,-12.6,30.63,West,274,11.0,14.0,70,0.00,,,0.00,VWS V14.01,2013-01-21 17:27:00,
2013-01-21 11:30:00,-5.6,-12.9,30.64,West,276,11.0,20.0,70,0.00,,,0.00,VWS V14.01,2013-01-21 17:30:00,
2013-01-21 11:32:00,-5.1,-12.4,30.63,West,279,10.0,17.0,70,0.00,,,0.00,VWS V14.01,2013-01-21 17:32:00,
2013-01-21 11:37:00,-5.0,-12.4,30.63,West,275,12.0,17.0,70,0.00,,,0.00,VWS V14.01,2013-01-21 17:37:00,
2013-01-21 11:42:00,-4.9,-12.2,30.62,West,281,9.0,18.0,70,0.00,,,0.00,VWS V14.01,2013-01-21 17:42:00,
2013-01-21 11:45:00,-5.0,-12.4,30.63,NW,309,13.0,17.0,70,0.00,,,0.00,VWS V14.01,2013-01-21 17:45:00,
2013-01-21 11:47:00,-4.7,-12.1,30.62,WNW,289,12.0,18.0,70,0.00,,,0.00,VWS V14.01,2013-01-21 17:47:00,
2013-01-21 11:52:00,-4.5,-11.9,30.62,WNW,300,8.0,18.0,70,0.00,,,0.00,VWS V14.01,2013-01-21 17:52:00,
2013-01-21 11:57:00,-4.5,-11.9,30.62,West,269,7.0,16.0,70,0.00,,,0.00,VWS V14.01,2013-01-21 17:57:00,
2013-01-21 12:00:00,-4.6,-12.0,30.62,NW,317,14.0,18.0,70,0.00,,,0.00,VWS V14.01,2013-01-21 18:00:00,
2013-01-21 12:02:00,-4.3,-11.7,30.62,West,279,10.0,19.0,70,0.00,,,0.00,VWS V14.01,2013-01-21 18:02:00,
2013-01-21 12:07:00,-4.1,-11.5,30.62,WNW,284,9.0,19.0,70,0.00,,,0.00,VWS V14.01,2013-01-21 18:07:00,
2013-01-21 12:12:00,-4.0,-11.4,30.61,WNW,288,13.0,17.0,70,0.00,,,0.00,VWS V14.01,2013-01-21 18:12:00,
2013-01-21 12:15:00,-4.0,-11.4,30.62,WNW,284,9.0,19.0,70,0.00,,,0.00,VWS V14.01,2013-01-21 18:15:00,
2013-01-21 12:17:00,-3.8,-11.2,30.61,NW,314,11.0,19.0,70,0.00,,,0.00,VWS V14.01,2013-01-21 18:17:00,
2013-01-21 12:22:00,-3.4,-10.8,30.61,WNW,286,6.0,19.0,70,0.00,,,0.00,VWS V14.01,2013-01-21 18:22:00,
2013-01-21 12:27:00,-3.2,-10.9,30.61,NW,311,11.0,19.0,69,0.00,,,0.00,VWS V14.01,2013-01-21 18:27:00,
2013-01-21 12:30:00,-3.3,-10.7,30.61,WNW,298,9.0,19.0,70,0.00,,,0.00,VWS V14.01,2013-01-21 18:30:00,
2013-01-21 12:32:00,-3.1,-10.8,30.60,NW,309,12.0,19.0,69,0.00,,,0.00,VWS V14.01,2013-01-21 18:32:00,
2013-01-21 12:37:00,-2.9,-10.6,30.60,WNW,284,9.0,19.0,69,0.00,,,0.00,VWS V14.01,2013-01-21 18:37:00,
2013-01-21 12:42:00,-2.8,-10.5,30.60,NW,317,13.0,17.0,69,0.00,,,0.00,VWS V14.01,2013-01-21 18:42:00,
2013-01-21 12:45:00,-2.8,-10.5,30.60,WNW,300,10.0,19.0,69,0.00,,,0.00,VWS V14.01,2013-01-21 18:45:00,
2013-01-21 12:47:00,-2.7,-10.4,30.60,NW,304,17.0,18.0,69,0.00,,,0.00,VWS V14.01,2013-01-21 18:47:00,
2013-01-21 12:52:00,-2.3,-10.0,30.59,WNW,284,12.0,18.0,69,0.00,,,0.00,VWS V14.01,2013-01-21 18:52:00,
2013-01-21 12:57:00,-2.1,-9.9,30.59,WNW,284,10.0,17.0,69,0.00,,,0.00,VWS V14.01,2013-01-21 18:57:00,
2013-01-21 13:00:00,-2.3,-10.0,30.59,WNW,298,11.0,18.0,69,0.00,,,0.00,VWS V14.01,2013-01-21 19:00:00,
2013-01-21 13:02:00,-1.8,-9.6,30.59,West,277,9.0,17.0,69,0.00,,,0.00,VWS V14.01,2013-01-21 19:02:00,
2013-01-21 13:07:00,-1.7,-9.8,30.58,NW,317,10.0,17.0,68,0.00,,,0.00,VWS V14.01,2013-01-21 19:07:00,
2013-01-21 13:12:00,-1.5,-9.6,30.58,NW,307,10.0,16.0,68,0.00,,,0.00,VWS V14.01,2013-01-21 19:12:00,
2013-01-21 13:15:00,-1.6,-9.7,30.58,NW,306,14.0,18.0,68,0.00,,,0.00,VWS V14.01,2013-01-21 19:15:00,
2013-01-21 13:17:00,-1.2,-9.3,30.58,NW,313,11.0,16.0,68,0.00,,,0.00,VWS V14.01,2013-01-21 19:17:00,
2013-01-21 13:22:00,-1.4,-9.5,30.58,NW,310,10.0,21.0,68,0.00,,,0.00,VWS V14.01,2013-01-21 19:22:00,
2013-01-21 13:27:00,-1.2,-9.3,30.58,NW,309,10.0,16.0,68,0.00,,,0.00,VWS V14.01,2013-01-21 19:27:00,
2013-01-21 13:30:00,-1.4,-9.5,30.58,NW,305,12.0,21.0,68,0.00,,,0.00,VWS V14.01,2013-01-21 19:30:00,
2013-01-21 13:32:00,-0.9,-9.0,30.58,WNW,297,18.0,18.0,68,0.00,,,0.00,VWS V14.01,2013-01-21 19:32:00,
2013-01-21 13:37:00,-0.9,-9.3,30.58,NW,314,18.0,18.0,67,0.00,,,0.00,VWS V14.01,2013-01-21 19:37:00,
2013-01-21 13:42:00,-0.6,-8.7,30.58,WNW,291,9.0,17.0,68,0.00,,,0.00,VWS V14.01,2013-01-21 19:42:00,
2013-01-21 13:45:00,-0.8,-8.9,30.58,WNW,290,13.0,19.0,68,0.00,,,0.00,VWS V14.01,2013-01-21 19:45:00,
2013-01-21 13:47:00,-0.3,-8.7,30.58,West,279,11.0,17.0,67,0.00,,,0.00,VWS V14.01,2013-01-21 19:47:00,
2013-01-21 13:52:00,-0.4,-8.8,30.58,West,278,9.0,18.0,67,0.00,,,0.00,VWS V14.01,2013-01-21 19:52:00,
2013-01-21 13:57:00,-0.3,-8.7,30.57,WNW,288,9.0,17.0,67,0.00,,,0.00,VWS V14.01,2013-01-21 19:57:00,
2013-01-21 14:00:00,-0.4,-8.8,30.58,WNW,285,8.0,18.0,67,0.00,,,0.00,VWS V14.01,2013-01-21 20:00:00,
2013-01-21 14:02:00,-0.1,-8.5,30.57,NW,313,12.0,17.0,67,0.00,,,0.00,VWS V14.01,2013-01-21 20:02:00,
2013-01-21 14:07:00,-0.1,-8.4,30.57,NNW,328,11.0,17.0,67,0.00,,,0.00,VWS V14.01,2013-01-21 20:07:00,
2013-01-21 14:12:00,0.2,-8.6,30.57,WNW,284,10.0,15.0,66,0.00,,,0.00,VWS V14.01,2013-01-21 20:12:00,
2013-01-21 14:15:00,-0.1,-8.4,30.57,WNW,303,11.0,17.0,67,0.00,,,0.00,VWS V14.01,2013-01-21 20:15:00,
2013-01-21 14:17:00,0.4,-8.4,30.57,NW,306,17.0,19.0,66,0.00,,,0.00,VWS V14.01,2013-01-21 20:17:00,
2013-01-21 14:22:00,0.1,-8.6,30.57,NNW,331,11.0,20.0,66,0.00,,,0.00,VWS V14.01,2013-01-21 20:22:00,
2013-01-21 14:27:00,0.2,-8.6,30.57,NW,319,15.0,20.0,66,0.00,,,0.00,VWS V14.01,2013-01-21 20:27:00,
2013-01-21 14:30:00,0.1,-8.6,30.57,NW,311,15.0,20.0,66,0.00,,,0.00,VWS V14.01,2013-01-21 20:30:00,
2013-01-21 14:32:00,0.6,-8.2,30.57,NW,311,14.0,20.0,66,0.00,,,0.00,VWS V14.01,2013-01-21 20:32:00,
2013-01-21 14:37:00,0.6,-8.5,30.57,West,275,11.0,20.0,65,0.00,,,0.00,VWS V14.01,2013-01-21 20:37:00,
2013-01-21 14:42:00,0.5,-8.6,30.57,NW,314,15.0,18.0,65,0.00,,,0.00,VWS V14.01,2013-01-21 20:42:00,
2013-01-21 14:45:00,0.6,-8.5,30.57,WNW,298,9.0,20.0,65,0.00,,,0.00,VWS V14.01,2013-01-21 20:45:00,
2013-01-21 14:47:00,0.6,-8.5,30.57,NW,323,14.0,20.0,65,0.00,,,0.00,VWS V14.01,2013-01-21 20:47:00,
2013-01-21 14:52:00,0.8,-8.3,30.57,NW,311,11.0,20.0,65,0.00,,,0.00,VWS V14.01,2013-01-21 20:52:00,
2013-01-21 14:57:00,1.1,-8.0,30.57,NW,309,15.0,15.0,65,0.00,,,0.00,VWS V14.01,2013-01-21 20:57:00,
2013-01-21 15:00:00,0.8,-8.3,30.57,WNW,296,9.0,20.0,65,0.00,,,0.00,VWS V14.01,2013-01-21 21:00:00,
2013-01-21 15:02:00,1.0,-8.4,30.57,WNW,298,8.0,16.0,64,0.00,,,0.00,VWS V14.01,2013-01-21 21:02:00,
2013-01-21 15:07:00,1.0,-8.4,30.57,NW,308,11.0,16.0,64,0.00,,,0.00,VWS V14.01,2013-01-21 21:07:00,
2013-01-21 15:12:00,1.2,-7.9,30.57,WNW,292,11.0,17.0,65,0.00,,,0.00,VWS V14.01,2013-01-21 21:12:00,
2013-01-21 15:15:00,1.1,-8.3,30.57,WNW,302,15.0,16.0,64,0.00,,,0.00,VWS V14.01,2013-01-21 21:15:00,
2013-01-21 15:17:00,1.2,-8.2,30.57,WNW,290,8.0,17.0,64,0.00,,,0.00,VWS V14.01,2013-01-21 21:17:00,
2013-01-21 15:22:00,1.3,-7.8,30.57,WNW,296,9.0,17.0,65,0.00,,,0.00,VWS V14.01,2013-01-21 21:22:00,
2013-01-21 15:27:00,1.2,-7.9,30.57,West,261,13.0,13.0,65,0.00,,,0.00,VWS V14.01,2013-01-21 21:27:00,
2013-01-21 15:30:00,1.3,-7.8,30.57,WNW,301,6.0,17.0,65,0.00,,,0.00,VWS V14.01,2013-01-21 21:30:00,
2013-01-21 15:32:00,1.1,-8.0,30.57,WNW,291,11.0,16.0,65,0.00,,,0.00,VWS V14.01,2013-01-21 21:32:00,
2013-01-21 15:37:00,0.9,-8.2,30.57,WNW,297,11.0,16.0,65,0.00,,,0.00,VWS V14.01,2013-01-21 21:37:00,
2013-01-21 15:42:00,0.8,-8.0,30.57,WNW,295,13.0,18.0,66,0.00,,,0.00,VWS V14.01,2013-01-21 21:42:00,
2013-01-21 15:45:00,0.9,-7.9,30.57,NW,312,11.0,16.0,66,0.00,,,0.00,VWS V14.01,2013-01-21 21:45:00,
2013-01-21 15:47:00,0.7,-8.1,30.57,NW,309,10.0,18.0,66,0.00,,,0.00,VWS V14.01,2013-01-21 21:47:00,
2013-01-21 15:52:00,0.6,-8.2,30.57,NW,305,10.0,18.0,66,0.00,,,0.00,VWS V14.01,2013-01-21 21:52:00,
2013-01-21 15:57:00,0.6,-8.2,30.57,NW,313,11.0,16.0,66,0.00,,,0.00,VWS V14.01,2013-01-21 21:57:00,
2013-01-21 16:00:00,0.7,-8.1,30.57,WNW,302,10.0,18.0,66,0.00,,,0.00,VWS V14.01,2013-01-21 22:00:00,
2013-01-21 16:02:00,0.7,-8.1,30.57,NW,309,16.0,16.0,66,0.00,,,0.00,VWS V14.01,2013-01-21 22:02:00,
2013-01-21 16:07:00,0.8,-7.7,30.57,WNW,296,9.0,16.0,67,0.00,,,0.00,VWS V14.01,2013-01-21 22:07:00,
2013-01-21 16:12:00,0.8,-7.7,30.57,WNW,296,9.0,9.0,67,0.00,,,0.00,VWS V14.01,2013-01-21 22:12:00,
2013-01-21 16:15:00,0.8,-7.7,30.57,WNW,296,9.0,16.0,67,0.00,,,0.00,VWS V14.01,2013-01-21 22:15:00,
2013-01-21 16:17:00,0.8,-7.7,30.56,WNW,296,9.0,9.0,67,0.00,,,0.00,VWS V14.01,2013-01-21 22:17:00,
2013-01-21 16:22:00,0.4,-8.1,30.56,WNW,297,7.0,12.0,67,0.00,,,0.00,VWS V14.01,2013-01-21 22:22:00,
2013-01-21 16:27:00,0.1,-8.3,30.56,WNW,291,5.0,11.0,67,0.00,,,0.00,VWS V14.01,2013-01-21 22:27:00,
2013-01-21 16:30:00,0.2,-8.2,30.56,WNW,290,7.0,12.0,67,0.00,,,0.00,VWS V14.01,2013-01-21 22:30:00,
2013-01-21 16:32:00,-0.1,-8.2,30.57,West,278,13.0,13.0,68,0.00,,,0.00,VWS V14.01,2013-01-21 22:32:00,
2013-01-21 16:37:00,-0.3,-8.4,30.57,WNW,285,5.0,13.0,68,0.00,,,0.00,VWS V14.01,2013-01-21 22:37:00,
2013-01-21 16:42:00,-0.4,-8.5,30.57,West,278,5.0,10.0,68,0.00,,,0.00,VWS V14.01,2013-01-21 22:42:00,
2013-01-21 16:45:00,-0.3,-8.4,30.57,West,276,6.0,13.0,68,0.00,,,0.00,VWS V14.01,2013-01-21 22:45:00,
2013-01-21 16:47:00,-0.5,-8.6,30.56,West,278,3.0,10.0,68,0.00,,,0.00,VWS V14.01,2013-01-21 22:47:00,
2013-01-21 16:52:00,-1.0,-8.8,30.56,West,273,9.0,12.0,69,0.00,,,0.00,VWS V14.01,2013-01-21 22:52:00,
2013-01-21 16:57:00,-1.3,-9.1,30.56,WNW,284,8.0,11.0,69,0.00,,,0.00,VWS V14.01,2013-01-21 22:57:00,
2013-01-21 17:00:00,-1.2,-9.0,30.56,WNW,292,9.0,12.0,69,0.00,,,0.00,VWS V14.01,2013-01-21 23:00:00,
2013-01-21 17:02:00,-1.6,-9.1,30.56,WNW,290,6.0,13.0,70,0.00,,,0.00,VWS V14.01,2013-01-21 23:02:00,
2013-01-21 17:07:00,-1.7,-9.2,30.56,WNW,303,5.0,13.0,70,0.00,,,0.00,VWS V14.01,2013-01-21 23:07:00,
2013-01-21 17:12:00,-1.7,-8.9,30.56,WNW,295,10.0,12.0,71,0.00,,,0.00,VWS V14.01,2013-01-21 23:12:00,
2013-01-21 17:15:00,-1.8,-9.3,30.56,WNW,287,6.0,13.0,70,0.00,,,0.00,VWS V14.01,2013-01-21 23:15:00,
2013-01-21 17:17:00,-1.7,-8.9,30.56,WNW,295,8.0,12.0,71,0.00,,,0.00,VWS V14.01,2013-01-21 23:17:00,
2013-01-21 17:22:00,-1.9,-9.1,30.56,WNW,295,5.0,12.0,71,0.00,,,0.00,VWS V14.01,2013-01-21 23:22:00,
2013-01-21 17:27:00,-2.1,-9.3,30.56,WNW,301,11.0,13.0,71,0.00,,,0.00,VWS V14.01,2013-01-21 23:27:00,
2013-01-21 17:30:00,-2.0,-9.2,30.56,WNW,292,10.0,12.0,71,0.00,,,0.00,VWS V14.01,2013-01-21 23:30:00,
2013-01-21 17:32:00,-2.1,-9.0,30.55,WNW,297,10.0,13.0,72,0.00,,,0.00,VWS V14.01,2013-01-21 23:32:00,
2013-01-21 17:37:00,-2.1,-9.0,30.55,WNW,292,5.0,13.0,72,0.00,,,0.00,VWS V14.01,2013-01-21 23:37:00,
2013-01-21 17:42:00,-2.1,-9.0,30.55,WNW,299,9.0,12.0,72,0.00,,,0.00,VWS V14.01,2013-01-21 23:42:00,
2013-01-21 17:45:00,-2.1,-9.0,30.55,NW,309,10.0,13.0,72,0.00,,,0.00,VWS V14.01,2013-01-21 23:45:00,
2013-01-21 17:47:00,-2.1,-9.3,30.55,NW,305,6.0,12.0,71,0.00,,,0.00,VWS V14.01,2013-01-21 23:47:00,
2013-01-21 17:52:00,-2.2,-9.4,30.55,WNW,292,6.0,12.0,71,0.00,,,0.00,VWS V14.01,2013-01-21 23:52:00,
2013-01-21 17:57:00,-2.4,-9.3,30.55,WNW,290,6.0,10.0,72,0.00,,,0.00,VWS V14.01,2013-01-21 23:57:00,
2013-01-21 18:00:00,-2.3,-9.5,30.55,WNW,292,6.0,12.0,71,0.00,,,0.00,VWS V14.01,2013-01-22 00:00:00,
2013-01-21 18:02:00,-2.5,-9.4,30.55,WNW,295,6.0,11.0,72,0.00,,,0.00,VWS V14.01,2013-01-22 00:02:00,
2013-01-21 18:07:00,-2.5,-9.4,30.55,WNW,298,9.0,11.0,72,0.00,,,0.00,VWS V14.01,2013-01-22 00:07:00,
2013-01-21 18:12:00,-2.6,-9.5,30.55,WNW,300,7.0,9.0,72,0.00,,,0.00,VWS V14.01,2013-01-22 00:12:00,
2013-01-21 18:15:00,-2.5,-9.4,30.55,WNW,296,4.0,11.0,72,0.00,,,0.00,VWS V14.01,2013-01-22 00:15:00,
2013-01-21 18:17:00,-2.6,-9.2,30.55,WNW,297,7.0,9.0,73,0.00,,,0.00,VWS V14.01,2013-01-22 00:17:00,
2013-01-21 18:22:00,-2.6,-9.2,30.55,WNW,297,7.0,9.0,73,0.00,,,0.00,VWS V14.01,2013-01-22 00:22:00,
2013-01-21 18:27:00,-2.6,-9.2,30.55,WNW,297,7.0,7.0,73,0.00,,,0.00,VWS V14.01,2013-01-22 00:27:00,
2013-01-21 18:30:00,-2.6,-9.2,30.55,WNW,297,7.0,9.0,73,0.00,,,0.00,VWS V14.01,2013-01-22 00:30:00,
2013-01-21 18:32:00,-2.6,-9.2,30.55,WNW,297,7.0,7.0,73,0.00,,,0.00,VWS V14.01,2013-01-22 00:32:00,
2013-01-21 18:37:00,-2.6,-9.2,30.55,WNW,297,7.0,7.0,73,0.00,,,0.00,VWS V14.01,2013-01-22 00:37:00,
2013-01-21 18:42:00,-2.6,-9.2,30.55,WNW,297,7.0,7.0,73,0.00,,,0.00,VWS V14.01,2013-01-22 00:42:00,
2013-01-21 18:45:00,-2.6,-9.2,30.55,WNW,297,7.0,7.0,73,0.00,,,0.00,VWS V14.01,2013-01-22 00:45:00,
2013-01-21 18:47:00,-2.2,-8.8,30.55,WNW,295,3.0,7.0,73,0.00,,,0.00,VWS V14.01,2013-01-22 00:47:00,
2013-01-21 18:52:00,-2.2,-8.8,30.55,WNW,295,3.0,7.0,73,0.00,,,0.00,VWS V14.01,2013-01-22 00:52:00,
2013-01-21 18:57:00,-2.2,-8.8,30.55,WNW,294,2.0,7.0,73,0.00,,,0.00,VWS V14.01,2013-01-22 00:57:00,
2013-01-21 19:00:00,-2.2,-8.8,30.55,WNW,295,4.0,7.0,73,0.00,,,0.00,VWS V14.01,2013-01-22 01:00:00,
2013-01-21 19:02:00,-2.1,-8.7,30.54,WNW,295,4.0,8.0,73,0.00,,,0.00,VWS V14.01,2013-01-22 01:02:00,
2013-01-21 19:07:00,-2.0,-8.3,30.55,WNW,298,4.0,9.0,74,0.00,,,0.00,VWS V14.01,2013-01-22 01:07:00,
2013-01-21 19:12:00,-1.9,-8.5,30.55,WNW,291,8.0,8.0,73,0.00,,,0.00,VWS V14.01,2013-01-22 01:12:00,
2013-01-21 19:15:00,-2.0,-8.3,30.55,WNW,291,6.0,9.0,74,0.00,,,0.00,VWS V14.01,2013-01-22 01:15:00,
2013-01-21 19:17:00,-1.8,-8.4,30.55,WNW,290,4.0,10.0,73,0.00,,,0.00,VWS V14.01,2013-01-22 01:17:00,
2013-01-21 19:22:00,-1.7,-8.3,30.55,WNW,289,4.0,10.0,73,0.00,,,0.00,VWS V14.01,2013-01-22 01:22:00,
2013-01-21 19:27:00,-1.6,-8.2,30.55,WNW,294,3.0,7.0,73,0.00,,,0.00,VWS V14.01,2013-01-22 01:27:00,
2013-01-21 19:30:00,-1.7,-8.3,30.55,WNW,294,7.0,10.0,73,0.00,,,0.00,VWS V14.01,2013-01-22 01:30:00,
2013-01-21 19:32:00,-1.5,-8.1,30.55,WNW,287,7.0,9.0,73,0.00,,,0.00,VWS V14.01,2013-01-22 01:32:00,
2013-01-21 19:37:00,-1.4,-8.0,30.55,WNW,288,6.0,9.0,73,0.00,,,0.00,VWS V14.01,2013-01-22 01:37:00,
2013-01-21 19:42:00,-1.3,-7.9,30.55,WNW,300,9.0,10.0,73,0.00,,,0.00,VWS V14.01,2013-01-22 01:42:00,
2013-01-21 19:45:00,-1.4,-8.0,30.55,WNW,291,5.0,9.0,73,0.00,,,0.00,VWS V14.01,2013-01-22 01:45:00,
2013-01-21 19:47:00,-1.2,-7.8,30.55,WNW,302,5.0,11.0,73,0.00,,,0.00,VWS V14.01,2013-01-22 01:47:00,
2013-01-21 19:52:00,-1.0,-7.6,30.55,WNW,302,5.0,11.0,73,0.00,,,0.00,VWS V14.01,2013-01-22 01:52:00,
2013-01-21 19:57:00,-0.9,-7.5,30.55,NW,306,6.0,11.0,73,0.00,,,0.00,VWS V14.01,2013-01-22 01:57:00,
2013-01-21 20:00:00,-1.0,-7.6,30.55,WNW,300,9.0,11.0,73,0.00,,,0.00,VWS V14.01,2013-01-22 02:00:00,
2013-01-21 20:02:00,-0.8,-7.7,30.55,NW,304,10.0,12.0,72,0.00,,,0.00,VWS V14.01,2013-01-22 02:02:00,
2013-01-21 20:07:00,-0.7,-7.6,30.55,NW,306,6.0,12.0,72,0.00,,,0.00,VWS V14.01,2013-01-22 02:07:00,
2013-01-21 20:12:00,-0.7,-7.6,30.55,WNW,301,8.0,10.0,72,0.00,,,0.00,VWS V14.01,2013-01-22 02:12:00,
2013-01-21 20:15:00,-0.7,-7.6,30.55,NW,304,6.0,12.0,72,0.00,,,0.00,VWS V14.01,2013-01-22 02:15:00,
2013-01-21 20:17:00,-0.6,-7.5,30.55,WNW,296,8.0,11.0,72,0.00,,,0.00,VWS V14.01,2013-01-22 02:17:00,
2013-01-21 20:22:00,-0.5,-7.4,30.55,WNW,297,6.0,11.0,72,0.00,,,0.00,VWS V14.01,2013-01-22 02:22:00,
2013-01-21 20:27:00,-0.5,-7.4,30.55,WNW,297,7.0,10.0,72,0.00,,,0.00,VWS V14.01,2013-01-22 02:27:00,
2013-01-21 20:30:00,-0.5,-7.4,30.55,WNW,299,6.0,11.0,72,0.00,,,0.00,VWS V14.01,2013-01-22 02:30:00,
2013-01-21 20:32:00,-0.5,-7.4,30.55,NW,307,11.0,11.0,72,0.00,,,0.00,VWS V14.01,2013-01-22 02:32:00,
2013-01-21 20:37:00,-0.4,-7.3,30.55,NW,304,9.0,11.0,72,0.00,,,0.00,VWS V14.01,2013-01-22 02:37:00,
2013-01-21 20:42:00,-0.3,-7.2,30.55,WNW,303,8.0,10.0,72,0.00,,,0.00,VWS V14.01,2013-01-22 02:42:00,
2013-01-21 20:45:00,-0.4,-7.3,30.55,NW,304,10.0,11.0,72,0.00,,,0.00,VWS V14.01,2013-01-22 02:45:00,
2013-01-21 20:47:00,-0.3,-7.2,30.54,NW,306,7.0,10.0,72,0.00,,,0.00,VWS V14.01,2013-01-22 02:47:00,
2013-01-21 20:52:00,-0.3,-7.2,30.54,WNW,300,7.0,10.0,72,0.00,,,0.00,VWS V14.01,2013-01-22 02:52:00,
2013-01-21 20:57:00,-0.3,-7.2,30.54,WNW,300,6.0,6.0,72,0.00,,,0.00,VWS V14.01,2013-01-22 02:57:00,
2013-01-21 21:00:00,-0.3,-7.2,30.54,WNW,300,6.0,11.0,72,0.00,,,0.00,VWS V14.01,2013-01-22 03:00:00,
2013-01-21 21:02:00,-0.3,-7.2,30.54,WNW,300,7.0,9.0,72,0.00,,,0.00,VWS V14.01,2013-01-22 03:02:00,
2013-01-21 21:07:00,-0.3,-7.2,30.54,WNW,296,5.0,9.0,72,0.00,,,0.00,VWS V14.01,2013-01-22 03:07:00,
2013-01-21 21:12:00,-0.3,-7.2,30.54,WNW,298,9.0,9.0,72,0.00,,,0.00,VWS V14.01,2013-01-22 03:12:00,
2013-01-21 21:15:00,-0.3,-7.2,30.54,WNW,296,4.0,9.0,72,0.00,,,0.00,VWS V14.01,2013-01-22 03:15:00,
2013-01-21 21:17:00,-0.3,-7.0,30.53,WNW,294,4.0,10.0,73,0.00,,,0.00,VWS V14.01,2013-01-22 03:17:00,
2013-01-21 21:22:00,-0.3,-7.0,30.54,WNW,293,5.0,10.0,73,0.00,,,0.00,VWS V14.01,2013-01-22 03:22:00,
2013-01-21 21:27:00,-0.4,-7.1,30.53,WNW,293,5.0,8.0,73,0.00,,,0.00,VWS V14.01,2013-01-22 03:27:00,
2013-01-21 21:30:00,-0.4,-7.1,30.53,WNW,293,4.0,10.0,73,0.00,,,0.00,VWS V14.01,2013-01-22 03:30:00,
2013-01-21 21:32:00,-0.4,-7.1,30.53,WNW,290,8.0,9.0,73,0.00,,,0.00,VWS V14.01,2013-01-22 03:32:00,
2013-01-21 21:37:00,-0.4,-7.1,30.53,WNW,292,5.0,9.0,73,0.00,,,0.00,VWS V14.01,2013-01-22 03:37:00,
2013-01-21 21:42:00,-0.5,-7.2,30.53,WNW,294,6.0,9.0,73,0.00,,,0.00,VWS V14.01,2013-01-22 03:42:00,
2013-01-21 21:45:00,-0.4,-7.1,30.53,WNW,294,4.0,9.0,73,0.00,,,0.00,VWS V14.01,2013-01-22 03:45:00,
2013-01-21 21:47:00,-0.5,-7.2,30.53,WNW,298,5.0,9.0,73,0.00,,,0.00,VWS V14.01,2013-01-22 03:47:00,
2013-01-21 21:52:00,-0.5,-7.2,30.53,WNW,298,8.0,9.0,73,0.00,,,0.00,VWS V14.01,2013-01-22 03:52:00,
2013-01-21 21:57:00,-0.5,-7.2,30.53,WNW,298,4.0,8.0,73,0.00,,,0.00,VWS V14.01,2013-01-22 03:57:00,
2013-01-21 22:00:00,-0.5,-7.2,30.53,WNW,298,6.0,9.0,73,0.00,,,0.00,VWS V14.01,2013-01-22 04:00:00,
2013-01-21 22:02:00,-0.5,-7.2,30.53,WNW,298,5.0,8.0,73,0.00,,,0.00,VWS V14.01,2013-01-22 04:02:00,
2013-01-21 22:07:00,-0.4,-7.1,30.53,WNW,298,6.0,8.0,73,0.00,,,0.00,VWS V14.01,2013-01-22 04:07:00,
2013-01-21 22:12:00,-0.4,-7.1,30.53,WNW,298,3.0,7.0,73,0.00,,,0.00,VWS V14.01,2013-01-22 04:12:00,
2013-01-21 22:15:00,-0.4,-7.1,30.53,WNW,298,5.0,8.0,73,0.00,,,0.00,VWS V14.01,2013-01-22 04:15:00,
2013-01-21 22:17:00,-0.5,-7.2,30.53,WNW,298,5.0,7.0,73,0.00,,,0.00,VWS V14.01,2013-01-22 04:17:00,
2013-01-21 22:22:00,-0.4,-7.1,30.53,WNW,300,6.0,8.0,73,0.00,,,0.00,VWS V14.01,2013-01-22 04:22:00,
2013-01-21 22:27:00,-0.3,-6.7,30.53,WNW,299,6.0,8.0,74,0.00,,,0.00,VWS V14.01,2013-01-22 04:27:00,
2013-01-21 22:30:00,-0.4,-6.8,30.53,WNW,298,6.0,9.0,74,0.00,,,0.00,VWS V14.01,2013-01-22 04:30:00,
2013-01-21 22:32:00,-0.3,-6.7,30.54,WNW,297,4.0,8.0,74,0.00,,,0.00,VWS V14.01,2013-01-22 04:32:00,
2013-01-21 22:37:00,-0.3,-7.0,30.53,WNW,293,6.0,9.0,73,0.00,,,0.00,VWS V14.01,2013-01-22 04:37:00,
2013-01-21 22:42:00,-0.3,-6.7,30.54,WNW,298,5.0,7.0,74,0.00,,,0.00,VWS V14.01,2013-01-22 04:42:00,
2013-01-21 22:45:00,-0.3,-6.7,30.53,WNW,298,5.0,9.0,74,0.00,,,0.00,VWS V14.01,2013-01-22 04:45:00,
2013-01-21 22:47:00,-0.3,-6.7,30.53,WNW,298,5.0,8.0,74,0.00,,,0.00,VWS V14.01,2013-01-22 04:47:00,
2013-01-21 22:52:00,-0.3,-6.7,30.54,WNW,298,6.0,8.0,74,0.00,,,0.00,VWS V14.01,2013-01-22 04:52:00,
2013-01-21 22:57:00,-0.3,-6.7,30.53,WNW,298,3.0,6.0,74,0.00,,,0.00,VWS V14.01,2013-01-22 04:57:00,
2013-01-21 23:00:00,-0.3,-6.7,30.53,WNW,295,6.0,8.0,74,0.00,,,0.00,VWS V14.01,2013-01-22 05:00:00,
2013-01-21 23:01:00,-0.2,-6.6,30.53,WNW,295,4.0,8.0,74,0.00,,,0.00,VWS V14.01,2013-01-22 05:01:00,
2013-01-21 23:06:00,-0.2,-6.6,30.53,WNW,294,5.0,8.0,74,0.00,,,0.00,VWS V14.01,2013-01-22 05:06:00,
2013-01-21 23:11:00,-0.2,-6.6,30.53,WNW,293,3.0,5.0,74,0.00,,,0.00,VWS V14.01,2013-01-22 05:11:00,
2013-01-21 23:15:00,-0.2,-6.6,30.53,WNW,293,3.0,8.0,74,0.00,,,0.00,VWS V14.01,2013-01-22 05:15:00,
2013-01-21 23:16:00,-0.1,-6.4,30.53,WNW,284,5.0,10.0,74,0.00,,,0.00,VWS V14.01,2013-01-22 05:16:00,
2013-01-21 23:21:00,-0.1,-6.4,30.53,WNW,284,5.0,10.0,74,0.00,,,0.00,VWS V14.01,2013-01-22 05:21:00,
2013-01-21 23:26:00,0.1,-6.3,30.53,WNW,285,6.0,6.0,74,0.00,,,0.00,VWS V14.01,2013-01-22 05:26:00,
2013-01-21 23:30:00,0.1,-6.3,30.53,WNW,285,2.0,10.0,74,0.00,,,0.00,VWS V14.01,2013-01-22 05:30:00,
2013-01-21 23:45:00,0.1,-6.3,30.53,WNW,292,5.0,9.0,74,0.00,,,0.00,VWS V14.01,2013-01-22 05:45:00,